createdAt,value
2022-08-18T03:02:18.466Z,6.90
2022-08-18T03:04:45.667Z,6.78
2022-08-18T03:07:14.769Z,5.90
2022-08-18T03:09:42.090Z,6.00
2022-08-18T03:12:09.989Z,6.10
2022-08-18T03:14:37.888Z,19.95
2022-08-18T03:17:08.293Z,6.10
2022-08-18T03:19:36.221Z,6.45
2022-08-18T03:22:05.873Z,6.10
2022-08-18T03:24:53.948Z,7.30
2022-08-18T03:27:21.129Z,5.82
2022-08-18T03:29:48.380Z,6.63
2022-08-18T03:32:15.566Z,6.22
2022-08-18T03:34:43.677Z,9.18
2022-08-18T03:37:10.997Z,10.70
2022-08-18T03:39:38.403Z,9.18
2022-08-18T03:42:05.746Z,7.93
2022-08-18T03:44:38.330Z,7.53
2022-08-18T03:47:10.371Z,7.53
2022-08-18T03:49:38.657Z,8.35
2022-08-18T03:52:09.458Z,8.27
2022-08-18T03:54:38.907Z,9.10
2022-08-18T03:57:09.296Z,8.50
2022-08-18T03:59:36.590Z,7.93
2022-08-18T04:02:05.472Z,8.35
2022-08-18T04:04:33.615Z,8.80
2022-08-18T04:07:05.528Z,8.77
2022-08-18T04:09:34.140Z,10.27
2022-08-18T04:12:16.702Z,8.40
2022-08-18T04:14:48.466Z,9.25
2022-08-18T04:17:23.647Z,9.55
2022-08-18T04:19:56.765Z,8.32
2022-08-18T04:22:25.367Z,8.82
2022-08-18T04:24:53.725Z,8.25
2022-08-18T04:27:22.222Z,8.15
2022-08-18T04:29:49.925Z,8.05
2022-08-18T04:32:17.781Z,9.25
2022-08-18T04:34:45.322Z,8.77
2022-08-18T04:37:15.366Z,10.70
2022-08-18T04:39:43.484Z,10.30
2022-08-18T04:42:11.287Z,10.02
2022-08-18T04:44:38.861Z,9.70
2022-08-18T04:47:09.095Z,10.40
2022-08-18T04:49:36.833Z,9.57
2022-08-18T04:52:40.502Z,10.20
2022-08-18T04:55:10.347Z,8.70
2022-08-18T04:57:37.750Z,8.55
2022-08-18T05:00:07.361Z,8.85
2022-08-18T05:02:34.947Z,9.18
2022-08-18T05:05:03.790Z,8.13
2022-08-18T05:07:31.761Z,7.47
2022-08-18T05:09:59.200Z,8.35
2022-08-18T05:12:27.004Z,9.63
2022-08-18T05:14:57.197Z,8.90
2022-08-18T05:17:29.033Z,9.35
2022-08-18T05:19:59.921Z,7.90
2022-08-18T05:22:30.418Z,7.95
2022-08-18T05:24:59.979Z,8.48
2022-08-18T05:27:35.203Z,9.05
2022-08-18T05:30:04.157Z,9.45
2022-08-18T05:32:48.754Z,10.02
2022-08-18T05:35:22.175Z,12.05
2022-08-18T05:38:03.214Z,8.70
2022-08-18T05:40:31.069Z,7.78
2022-08-18T05:42:59.902Z,7.95
2022-08-18T05:45:27.352Z,8.00
2022-08-18T05:48:00.047Z,7.43
2022-08-18T05:50:31.074Z,8.32
2022-08-18T05:53:13.538Z,9.63
2022-08-18T05:56:10.812Z,9.65
2022-08-18T05:58:43.492Z,8.95
2022-08-18T06:01:18.306Z,8.57
2022-08-18T06:03:54.662Z,8.60
2022-08-18T06:06:26.033Z,10.15
2022-08-18T06:09:18.796Z,7.88
2022-08-18T06:11:47.182Z,8.27
2022-08-18T06:14:14.597Z,7.85
2022-08-18T06:17:04.390Z,8.00
2022-08-18T06:19:59.809Z,8.55
2022-08-18T06:22:53.283Z,7.82
2022-08-18T06:25:55.645Z,9.25
2022-08-18T06:28:22.995Z,7.95
2022-08-18T06:31:02.683Z,7.85
2022-08-18T06:33:57.314Z,8.13
2022-08-18T06:36:36.355Z,7.63
2022-08-18T06:39:26.381Z,9.25
2022-08-18T06:41:54.630Z,10.27
2022-08-18T06:44:38.975Z,10.48
2022-08-18T06:47:08.949Z,10.02
2022-08-18T06:49:46.614Z,8.57
2022-08-18T06:52:19.815Z,8.30
2022-08-18T06:54:51.471Z,8.35
2022-08-18T06:57:26.585Z,8.73
2022-08-18T07:00:01.174Z,8.50
2022-08-18T07:02:47.295Z,9.60
2022-08-18T07:05:14.423Z,9.20
2022-08-18T07:07:43.324Z,10.23
2022-08-18T07:10:16.436Z,11.00
2022-08-18T07:12:44.035Z,10.07
2022-08-18T07:15:12.718Z,10.75
2022-08-18T07:17:43.565Z,10.68
2022-08-18T07:20:22.290Z,10.68
2022-08-18T07:22:55.027Z,10.02
2022-08-18T07:25:26.843Z,11.30
2022-08-18T07:27:56.699Z,11.48
2022-08-18T07:30:24.810Z,11.05
2022-08-18T07:33:19.875Z,9.95
2022-08-18T07:35:49.482Z,11.20
2022-08-18T07:38:41.913Z,11.27
2022-08-18T07:41:16.779Z,9.93
2022-08-18T07:43:59.406Z,10.55
2022-08-18T07:46:43.433Z,10.13
2022-08-18T07:49:21.987Z,10.13
2022-08-18T07:51:56.341Z,10.35
2022-08-18T07:55:01.268Z,10.40
2022-08-18T07:58:02.174Z,9.30
2022-08-18T08:00:57.372Z,9.95
2022-08-18T08:03:41.524Z,8.68
2022-08-18T08:06:23.803Z,9.68
2022-08-18T08:08:55.020Z,9.65
2022-08-18T08:11:28.243Z,10.43
2022-08-18T08:14:37.410Z,9.43
2022-08-18T08:17:07.443Z,8.38
2022-08-18T08:20:09.751Z,8.15
2022-08-18T08:22:45.108Z,9.10
2022-08-18T08:25:42.736Z,8.02
2022-08-18T08:28:14.552Z,7.63
2022-08-18T08:30:52.733Z,8.20
2022-08-18T08:33:28.314Z,7.35
2022-08-18T08:36:07.921Z,7.32
2022-08-18T08:38:55.552Z,7.43
2022-08-18T08:41:33.318Z,6.38
2022-08-18T08:44:13.438Z,6.03
2022-08-18T08:47:35.680Z,6.32
2022-08-18T08:50:21.740Z,6.75
2022-08-18T08:53:01.159Z,5.75
2022-08-18T08:55:45.567Z,5.82
2022-08-18T08:58:31.749Z,5.70
2022-08-18T09:00:59.977Z,6.00
2022-08-18T09:03:56.478Z,6.25
2022-08-18T09:06:32.797Z,6.20
2022-08-18T09:09:11.117Z,6.03
2022-08-18T09:12:04.740Z,5.43
2022-08-18T09:14:54.957Z,5.88
2022-08-18T09:17:45.381Z,6.22
2022-08-18T09:20:37.430Z,6.10
2022-08-18T09:23:10.649Z,6.30
2022-08-18T09:25:43.510Z,6.05
2022-08-18T09:28:16.996Z,7.05
2022-08-18T09:31:19.631Z,6.63
2022-08-18T09:34:10.945Z,5.68
2022-08-18T09:36:38.222Z,7.30
2022-08-18T09:39:54.451Z,8.68
2022-08-18T09:42:49.767Z,6.50
2022-08-18T09:45:47.076Z,8.10
2022-08-18T09:48:20.794Z,8.10
2022-08-18T09:50:58.228Z,9.25
2022-08-18T09:53:57.014Z,8.18
2022-08-18T09:56:54.470Z,5.90
2022-08-18T09:59:39.197Z,8.15
2022-08-18T10:02:29.180Z,8.75
2022-08-18T10:05:15.590Z,7.22
2022-08-18T10:08:14.749Z,8.20
2022-08-18T10:11:00.755Z,7.20
2022-08-18T10:13:48.882Z,6.82
2022-08-18T10:16:57.693Z,7.63
2022-08-18T10:19:52.306Z,6.47
2022-08-18T10:22:43.272Z,7.07
2022-08-18T10:25:22.550Z,7.18
2022-08-18T10:27:54.158Z,6.43
2022-08-18T10:30:34.589Z,6.47
2022-08-18T10:33:32.664Z,6.80
2022-08-18T10:36:03.247Z,6.60
2022-08-18T10:38:46.107Z,6.20
2022-08-18T10:41:31.670Z,7.07
2022-08-18T10:44:01.310Z,7.60
2022-08-18T10:46:39.552Z,7.32
2022-08-18T10:49:13.240Z,8.15
2022-08-18T10:52:04.056Z,7.47
2022-08-18T10:54:59.993Z,7.97
2022-08-18T10:58:09.656Z,8.00
2022-08-18T11:00:51.643Z,8.00
2022-08-18T11:06:18.163Z,8.52
2022-08-18T11:08:55.213Z,8.48
2022-08-18T11:14:44.739Z,9.45
2022-08-18T11:17:32.096Z,8.65
2022-08-18T11:20:01.784Z,8.60
2022-08-18T11:22:34.076Z,8.10
2022-08-18T11:25:03.533Z,8.38
2022-08-18T11:27:37.375Z,8.18
2022-08-18T11:30:12.259Z,7.63
2022-08-18T11:32:51.370Z,8.20
2022-08-18T11:35:41.753Z,8.57
2022-08-18T11:38:13.577Z,8.68
2022-08-18T11:41:10.698Z,8.30
2022-08-18T11:43:42.495Z,8.23
2022-08-18T11:46:29.496Z,8.00
2022-08-18T11:49:13.882Z,7.85
2022-08-18T11:52:03.137Z,8.10
2022-08-18T11:54:50.086Z,7.80
2022-08-18T11:57:46.545Z,8.98
2022-08-18T12:00:35.849Z,12.52
2022-08-18T12:03:28.404Z,7.88
2022-08-18T12:05:59.615Z,7.28
2022-08-18T12:11:41.233Z,8.40
2022-08-18T12:14:31.289Z,7.82
2022-08-18T12:17:08.301Z,7.20
2022-08-18T12:19:35.598Z,6.55
2022-08-18T12:22:17.791Z,7.00
2022-08-18T12:24:46.650Z,7.63
2022-08-18T12:27:20.797Z,7.20
2022-08-18T12:29:50.563Z,6.63
2022-08-18T12:32:46.894Z,7.32
2022-08-18T12:35:11.254Z,7.70
2022-08-18T12:37:59.062Z,8.13
2022-08-18T12:40:27.111Z,7.53
2022-08-18T12:42:55.890Z,7.88
2022-08-18T12:45:24.722Z,8.30
2022-08-18T12:47:52.743Z,8.32
2022-08-18T12:50:20.193Z,8.85
2022-08-18T12:52:59.261Z,9.63
2022-08-18T12:55:29.538Z,10.00
2022-08-18T12:57:56.922Z,9.13
2022-08-18T13:00:28.822Z,10.05
2022-08-18T13:02:57.603Z,10.35
2022-08-18T13:05:27.721Z,8.95
2022-08-18T13:08:00.861Z,8.95
2022-08-18T13:10:43.226Z,9.93
2022-08-18T13:13:15.577Z,9.75
2022-08-18T13:15:55.660Z,9.52
2022-08-18T13:18:28.533Z,9.68
2022-08-18T13:20:58.784Z,10.10
2022-08-18T13:23:30.549Z,9.43
2022-08-18T13:26:02.074Z,10.68
2022-08-18T13:28:33.576Z,9.30
2022-08-18T13:31:06.755Z,10.38
2022-08-18T13:33:56.696Z,9.70
2022-08-18T13:36:23.033Z,10.48
2022-08-18T13:38:54.906Z,11.63
2022-08-18T13:43:52.227Z,11.55
2022-08-18T13:46:30.001Z,10.25
2022-08-18T13:49:02.209Z,10.73
2022-08-18T13:51:30.852Z,11.55
2022-08-18T13:54:26.598Z,10.25
2022-08-18T13:56:51.770Z,11.15
2022-08-18T13:59:21.835Z,11.93
2022-08-18T14:01:53.188Z,12.02
2022-08-18T14:04:22.531Z,12.60
2022-08-18T14:06:57.221Z,11.02
2022-08-18T14:09:27.651Z,10.93
2022-08-18T14:12:07.101Z,10.73
2022-08-18T14:14:43.654Z,11.18
2022-08-18T14:17:10.869Z,10.15
2022-08-18T14:19:56.728Z,11.23
2022-08-18T14:22:43.058Z,10.30
2022-08-18T14:25:29.126Z,10.38
2022-08-18T14:27:59.035Z,11.27
2022-08-18T14:30:31.542Z,10.48
2022-08-18T14:32:59.758Z,12.45
2022-08-18T14:36:04.467Z,11.70
2022-08-18T14:38:16.046Z,13.38
2022-08-18T14:40:44.893Z,14.05
2022-08-18T14:43:14.697Z,12.55
2022-08-18T14:45:48.924Z,13.00
2022-08-18T14:48:18.874Z,11.75
2022-08-18T14:50:50.089Z,12.50
2022-08-18T14:53:20.293Z,12.93
2022-08-18T14:55:52.136Z,13.45
2022-08-18T14:58:20.907Z,13.38
2022-08-18T15:00:53.852Z,10.98
2022-08-18T15:03:30.893Z,13.10
2022-08-18T15:06:00.756Z,15.80
2022-08-18T15:08:34.415Z,15.35
2022-08-18T15:11:06.059Z,17.55
2022-08-18T15:13:41.887Z,20.35
2022-08-18T15:16:13.476Z,21.88
2022-08-18T15:18:44.999Z,16.73
2022-08-18T15:21:35.614Z,17.90
2022-08-18T15:24:25.520Z,19.95
2022-08-18T15:27:06.148Z,15.85
2022-08-18T15:29:41.386Z,20.60
2022-08-18T15:32:10.493Z,17.60
2022-08-18T15:34:47.268Z,20.30
2022-08-18T15:37:22.254Z,18.20
2022-08-18T15:40:02.815Z,20.75
2022-08-18T15:42:30.401Z,24.05
2022-08-18T15:45:11.953Z,21.52
2022-08-18T15:47:41.836Z,26.88
2022-08-18T15:50:25.281Z,25.25
2022-08-18T15:52:58.022Z,31.35
2022-08-18T15:55:28.867Z,22.35
2022-08-18T15:57:58.573Z,22.85
2022-08-18T16:00:29.755Z,17.40
2022-08-18T16:03:02.236Z,21.25
2022-08-18T16:05:40.802Z,16.90
2022-08-18T16:08:10.361Z,15.90
2022-08-18T16:10:39.418Z,15.20
2022-08-18T16:13:07.704Z,13.40
2022-08-18T16:15:40.218Z,14.15
2022-08-18T16:18:08.753Z,13.55
2022-08-18T16:20:37.408Z,13.15
2022-08-18T16:23:05.581Z,18.88
2022-08-18T16:25:33.312Z,23.65
2022-08-18T16:28:01.129Z,13.02
2022-08-18T16:30:29.194Z,12.90
2022-08-18T16:33:02.719Z,12.45
2022-08-18T16:35:31.723Z,10.32
2022-08-18T16:38:09.368Z,9.23
2022-08-18T16:40:37.597Z,8.23
2022-08-18T16:43:05.849Z,8.02
2022-08-18T16:45:35.883Z,9.52
2022-08-18T16:48:03.849Z,7.90
2022-08-18T16:50:31.118Z,6.97
2022-08-18T16:52:58.325Z,6.38
2022-08-18T16:55:25.944Z,7.45
2022-08-18T16:58:15.485Z,8.68
2022-08-18T17:01:02.321Z,8.60
2022-08-18T17:03:48.153Z,7.55
2022-08-18T17:06:18.208Z,6.85
2022-08-18T17:08:47.230Z,6.32
2022-08-18T17:11:17.958Z,6.70
2022-08-18T17:13:47.325Z,8.27
2022-08-18T17:16:16.810Z,9.35
2022-08-18T17:18:44.683Z,10.95
2022-08-18T17:21:16.045Z,10.10
2022-08-18T17:23:43.373Z,11.55
2022-08-18T17:26:41.562Z,9.80
2022-08-18T17:29:10.136Z,12.68
2022-08-18T17:31:46.836Z,13.45
2022-08-18T17:34:15.528Z,14.30
2022-08-18T17:36:53.883Z,16.15
2022-08-18T17:39:36.379Z,15.63
2022-08-18T17:42:23.225Z,17.42
2022-08-18T17:44:52.541Z,20.70
2022-08-18T17:47:29.206Z,18.45
2022-08-18T17:50:28.068Z,21.35
2022-08-18T17:53:06.335Z,20.63
2022-08-18T17:56:11.355Z,20.13
2022-08-18T17:58:46.190Z,20.42
2022-08-18T18:01:14.361Z,25.08
2022-08-18T18:03:43.985Z,26.73
2022-08-18T18:06:40.504Z,22.10
2022-08-18T18:09:32.182Z,22.35
2022-08-18T18:12:21.424Z,19.90
2022-08-18T18:14:48.815Z,17.95
2022-08-18T18:17:29.285Z,21.35
2022-08-18T18:20:15.722Z,21.40
2022-08-18T18:22:44.606Z,18.38
2022-08-18T18:25:13.049Z,15.60
2022-08-18T18:27:43.822Z,12.43
2022-08-18T18:30:19.358Z,10.88
2022-08-18T18:33:02.651Z,9.77
2022-08-18T18:35:54.999Z,10.13
2022-08-18T18:38:27.387Z,10.80
2022-08-18T18:41:05.022Z,7.22
2022-08-18T18:43:38.234Z,5.85
2022-08-18T18:46:19.473Z,5.50
2022-08-18T18:48:55.553Z,5.05
2022-08-18T18:51:33.946Z,4.90
2022-08-18T18:54:27.902Z,4.78
2022-08-18T18:56:56.717Z,4.30
2022-08-18T18:59:45.264Z,4.18
2022-08-18T19:02:33.169Z,3.30
2022-08-18T19:05:12.208Z,3.20
2022-08-18T19:08:08.149Z,2.88
2022-08-18T19:10:57.388Z,2.40
2022-08-18T19:13:35.195Z,2.30
2022-08-18T19:16:26.733Z,2.22
2022-08-18T19:19:38.205Z,1.88
2022-08-18T19:22:03.563Z,1.77
2022-08-18T19:24:38.858Z,1.70
2022-08-18T19:27:11.314Z,1.90
2022-08-18T19:29:42.488Z,1.70
2022-08-18T19:32:17.767Z,1.70
2022-08-18T19:34:52.711Z,1.70
2022-08-18T19:37:31.671Z,1.50
2022-08-18T19:40:13.772Z,1.60
2022-08-18T19:43:06.262Z,1.70
2022-08-18T19:45:55.804Z,1.73
2022-08-18T19:48:40.604Z,1.30
2022-08-18T19:51:25.497Z,2.05
2022-08-18T19:54:19.766Z,1.50
2022-08-18T19:57:36.640Z,1.50
2022-08-18T20:00:30.449Z,1.65
2022-08-18T20:03:27.972Z,1.70
2022-08-18T20:06:34.574Z,1.40
2022-08-18T20:09:32.700Z,1.70
2022-08-18T20:12:25.340Z,1.60
2022-08-18T20:15:10.465Z,1.60
2022-08-18T20:17:54.220Z,2.25
2022-08-18T20:20:23.495Z,1.67
2022-08-18T20:22:57.214Z,2.03
2022-08-18T20:25:24.601Z,2.30
2022-08-18T20:27:53.148Z,2.38
2022-08-18T20:30:20.322Z,2.50
2022-08-18T20:33:25.755Z,2.10
2022-08-18T20:36:13.947Z,2.03
2022-08-18T20:38:52.155Z,2.17
2022-08-18T20:41:28.184Z,2.38
2022-08-18T20:44:21.917Z,2.38
2022-08-18T20:47:28.150Z,2.25
2022-08-18T20:50:18.567Z,2.15
2022-08-18T20:53:00.616Z,2.20
2022-08-18T20:55:56.742Z,2.58
2022-08-18T20:58:32.087Z,3.50
